Terminal Aerodrome Forecast
Issued by NWS

Home | Current Version | Previous Version | Text Only | Print | Product List | Glossary On
Versions: 1 2 3 4 5 6 7 8 9 10 11 12 13 14 15 16 17 18 19 20 21
000
FTUS43 KGRR 241100
TAFBTL
TAF
KBTL 241129Z 2412/2512 18005KT P6SM OVC035
     FM241500 22008KT P6SM OVC030
     FM241900 23009KT P6SM BKN035
     FM251100 20007KT P6SM OVC020=

USA.gov is the U.S. government's official web portal to all federal, state and local government web resources and services.